Airfield :
LOGIN :

Register | Disclaimer

   EN    FR    IT 

 










Legend :    VFR   Marginal VFR   IFR   Intensive IFR   Very Intensive IFR
Visi :
Ceiling :
>= 8 km
>= 3000ft
5 to 8 km
1000 to 3000 ft
1500m to 5 km
500 to 1000 ft
800 to 1500m
200 to 500 ft
< 800m
< 200 ft
Symbols :   Thunderstorms  Fog  Heavy snow  Heavy precipitations  Wind > 20 kt
SIGMETs :     Misc.  Thunderstorms  Icing  Turbulence  Mountain Waves  Volcanic Ashes






- Airport Elevation : 302 ft
- IATA code : CGN


EDDK - Cologne Bonn

CURRENT METAR :
  • 212320Z 06006KT CAVOK M03/M03 Q1038 NOSIG

EXPIRED METARs :
  • 212250Z VRB02KT CAVOK M02/M03 Q1038 NOSIG
  • 212220Z 13004KT CAVOK M02/M03 Q1038 NOSIG
  • 212150Z 15008KT CAVOK M03/M03 Q1038 NOSIG
  • 212120Z 14003KT CAVOK M03/M04 Q1039 NOSIG
  • 212050Z 07001KT CAVOK M02/M03 Q1039 NOSIG

TAF TAF EDDK
Valid from the 22 at 00:00 until the 23 at 06:00 UTC


212300Z 2200/2306 VRB03KT CAVOK
BECMG 2201/2205 3000 BR BKN005
TEMPO 2205/2210 1500 BR BKN003
PROB40
TEMPO 2205/2210 0500 FZFG OVC001
BECMG 2210/2213 5000
TEMPO 2213/2217 3000 BR BKN010
BECMG 2217/2220 4000 BR
PROB40
TEMPO 2217/2306 BKN010



MET'MAP, your aeronautical weather chart ! - Copyright ORBIFLY December 2007 - Disclaimer

ORBIFLY MET'MAP TEAM :

Programming & Development : Alexandra Zaïnal
Concept & original design : Baudouin d'Aumeries
Assistance for programming : Marc-Olivier Méhu
Technical & hardware support : Manuel Goepfert

Contact : metmap@orbifly.com




SOURCES & CREDITS :

   NOAA